Chilton, Texas
Current Conditions -  °F | °C
As of 9:35 AM on Saturday 25 Oct 2014 (Local Time) from KPWG Reporting Station
Clear Clear  
Wind Chill: 70°   Ceiling: Unl
Heat Index: 70°   Visibility: 10mi
Dew Point: 57°   Wind: 7mph
Humidity: 64%   Direction: 170°S
Pressure: 30.19"   Gusts: NA
Location:  31.28°N, 97.06°W
Report Text: KPWG 251435Z AUTO 17006KT 10SM CLR 21/14 A3019 RMK AO1
Loading
Personal Weather Stations






























Interactive Weather Map
Tropical Storm Tracking
New forecast layout! Learn more

10-Day Weather Forecast

Advertisements
Track Severe Weather on mobile